createdAt,value
2023-02-26T00:01:58.549Z,3.65
2023-02-26T00:04:27.986Z,3.77
2023-02-26T00:06:59.723Z,3.65
2023-02-26T00:09:28.783Z,3.25
2023-02-26T00:11:59.308Z,3.50
2023-02-26T00:14:29.179Z,3.47
2023-02-26T00:17:01.646Z,3.65
2023-02-26T00:19:31.443Z,3.50
2023-02-26T00:22:01.733Z,3.35
2023-02-26T00:24:31.366Z,3.58
2023-02-26T00:27:00.685Z,3.05
2023-02-26T00:29:30.933Z,3.62
2023-02-26T00:32:00.737Z,3.67
2023-02-26T00:34:30.463Z,3.22
2023-02-26T00:37:20.363Z,3.02
2023-02-26T00:39:58.873Z,3.08
2023-02-26T00:42:28.837Z,3.30
2023-02-26T00:44:58.694Z,2.90
2023-02-26T00:47:54.834Z,3.15
2023-02-26T00:50:25.946Z,3.17
2023-02-26T00:52:58.432Z,3.40
2023-02-26T00:55:29.439Z,2.80
2023-02-26T00:57:58.848Z,3.20
2023-02-26T01:00:28.571Z,3.10
2023-02-26T01:02:58.772Z,2.92
2023-02-26T01:05:28.344Z,3.40
2023-02-26T01:08:32.475Z,3.10
2023-02-26T01:11:02.202Z,2.85
2023-02-26T01:13:32.034Z,3.00
2023-02-26T01:16:04.914Z,3.12
2023-02-26T01:18:39.634Z,2.80
2023-02-26T01:21:11.728Z,3.00
2023-02-26T01:23:44.687Z,2.75
2023-02-26T01:26:20.711Z,2.72
2023-02-26T01:28:50.577Z,2.70
2023-02-26T01:31:46.122Z,2.25
2023-02-26T01:34:21.653Z,2.58
2023-02-26T01:36:57.444Z,2.40
2023-02-26T01:39:38.789Z,2.80
2023-02-26T01:42:14.185Z,2.37
2023-02-26T01:44:58.430Z,2.83
2023-02-26T01:47:36.339Z,2.20
2023-02-26T01:50:14.854Z,2.33
2023-02-26T01:52:53.548Z,1.95
2023-02-26T01:55:25.476Z,2.10
2023-02-26T01:57:57.062Z,2.10
2023-02-26T02:00:26.382Z,1.90
2023-02-26T02:02:55.798Z,2.08
2023-02-26T02:05:31.331Z,2.20
2023-02-26T02:08:01.612Z,2.08
2023-02-26T02:10:31.504Z,2.12
2023-02-26T02:13:19.101Z,1.87
2023-02-26T02:15:52.705Z,1.80
2023-02-26T02:18:40.211Z,1.60
2023-02-26T02:21:24.965Z,1.65
2023-02-26T02:24:17.251Z,1.70
2023-02-26T02:26:59.556Z,1.90
2023-02-26T02:29:34.617Z,1.60
2023-02-26T02:32:22.186Z,1.80
2023-02-26T02:34:54.469Z,1.87
2023-02-26T02:37:32.920Z,1.57
2023-02-26T02:40:05.395Z,1.70
2023-02-26T02:42:37.020Z,1.47
2023-02-26T02:45:10.887Z,1.50
2023-02-26T02:47:42.980Z,1.65
2023-02-26T02:50:24.292Z,1.20
2023-02-26T02:52:57.216Z,1.47
2023-02-26T02:55:29.906Z,1.40
2023-02-26T02:58:05.022Z,1.47
2023-02-26T03:00:36.349Z,1.62
2023-02-26T03:03:37.804Z,1.77
2023-02-26T03:06:07.873Z,1.50
2023-02-26T03:08:41.636Z,1.12
2023-02-26T03:11:11.336Z,1.07
2023-02-26T03:13:41.333Z,1.65
2023-02-26T03:16:21.660Z,1.45
2023-02-26T03:19:16.173Z,1.25
2023-02-26T03:22:05.479Z,1.47
2023-02-26T03:24:42.426Z,1.20
2023-02-26T03:27:15.048Z,1.15
2023-02-26T03:30:00.797Z,1.32
2023-02-26T03:32:50.558Z,1.60
2023-02-26T03:35:55.741Z,0.90
2023-02-26T03:38:28.350Z,1.15
2023-02-26T03:41:02.476Z,1.22
2023-02-26T03:43:36.226Z,1.10
2023-02-26T03:46:08.863Z,1.22
2023-02-26T03:48:38.559Z,1.20
2023-02-26T03:51:11.113Z,1.15
2023-02-26T03:54:00.308Z,1.07
2023-02-26T03:56:42.952Z,1.10
2023-02-26T03:59:14.937Z,1.47
2023-02-26T04:01:52.194Z,1.10
2023-02-26T04:04:34.390Z,1.20
2023-02-26T04:09:33.075Z,1.15
2023-02-26T04:12:02.994Z,1.27
2023-02-26T04:14:32.216Z,1.25
2023-02-26T04:17:01.589Z,0.95
2023-02-26T04:19:31.007Z,1.10
2023-02-26T04:22:00.486Z,1.30
2023-02-26T04:24:30.010Z,1.30
2023-02-26T04:27:01.184Z,1.30
2023-02-26T04:29:32.453Z,1.10
2023-02-26T04:32:02.902Z,0.98
2023-02-26T04:34:32.677Z,1.05
2023-02-26T04:37:02.118Z,1.42
2023-02-26T04:39:32.096Z,1.22
2023-02-26T04:42:01.516Z,0.90
2023-02-26T04:44:31.361Z,0.80
2023-02-26T04:47:01.639Z,1.22
2023-02-26T04:49:31.505Z,0.98
2023-02-26T04:52:00.901Z,1.00
2023-02-26T04:54:30.541Z,1.15
2023-02-26T04:56:59.862Z,1.27
2023-02-26T04:59:29.543Z,1.10
2023-02-26T05:02:00.190Z,1.00
2023-02-26T05:04:29.728Z,1.15
2023-02-26T05:07:01.201Z,1.10
2023-02-26T05:09:30.522Z,1.00
2023-02-26T05:11:59.858Z,1.00
2023-02-26T05:14:29.163Z,1.10
2023-02-26T05:16:59.531Z,1.10
2023-02-26T05:19:29.362Z,1.07
2023-02-26T05:21:58.735Z,1.02
2023-02-26T05:24:28.022Z,0.80
2023-02-26T05:26:57.513Z,1.20
2023-02-26T05:29:26.822Z,1.32
2023-02-26T05:31:57.437Z,0.95
2023-02-26T05:34:26.916Z,1.20
2023-02-26T05:36:56.150Z,1.20
2023-02-26T05:39:25.394Z,1.20
2023-02-26T05:41:55.511Z,1.22
2023-02-26T05:44:25.419Z,1.02
2023-02-26T05:46:54.906Z,0.90
2023-02-26T05:49:24.197Z,1.22
2023-02-26T05:51:53.449Z,1.32
2023-02-26T05:54:22.731Z,1.25
2023-02-26T05:56:52.317Z,1.75
2023-02-26T05:59:21.874Z,1.10
2023-02-26T06:01:51.288Z,1.05
2023-02-26T06:04:21.265Z,1.12
2023-02-26T06:06:50.470Z,1.02
2023-02-26T06:09:19.735Z,1.10
2023-02-26T06:11:48.937Z,1.00
2023-02-26T06:14:18.579Z,1.05
2023-02-26T06:16:47.910Z,0.90
2023-02-26T06:19:17.473Z,0.95
2023-02-26T06:21:47.083Z,1.22
2023-02-26T06:24:16.862Z,1.22
2023-02-26T06:26:46.139Z,0.93
2023-02-26T06:29:15.435Z,1.10
2023-02-26T06:31:45.388Z,1.30
2023-02-26T06:34:15.129Z,1.00
2023-02-26T06:36:44.878Z,1.30
2023-02-26T06:39:14.783Z,0.90
2023-02-26T06:41:44.069Z,1.20
2023-02-26T06:44:13.450Z,0.98
2023-02-26T06:46:42.779Z,1.20
2023-02-26T06:49:12.172Z,0.80
2023-02-26T06:51:41.460Z,1.00
2023-02-26T06:54:11.098Z,1.10
2023-02-26T06:56:40.566Z,0.95
2023-02-26T06:59:09.920Z,0.80
2023-02-26T07:01:40.060Z,1.02
2023-02-26T07:04:09.452Z,1.00
2023-02-26T07:06:38.887Z,0.90
2023-02-26T07:09:08.327Z,1.00
2023-02-26T07:11:37.670Z,1.07
2023-02-26T07:14:07.096Z,1.00
2023-02-26T07:16:36.583Z,1.10
2023-02-26T07:19:05.849Z,1.10
2023-02-26T07:21:35.716Z,0.90
2023-02-26T07:24:05.614Z,0.90
2023-02-26T07:26:34.967Z,1.20
2023-02-26T07:29:04.744Z,1.15
2023-02-26T07:31:34.679Z,1.00
2023-02-26T07:34:04.482Z,1.00
2023-02-26T07:36:33.734Z,0.98
2023-02-26T07:39:03.150Z,1.25
2023-02-26T07:41:32.344Z,1.17
2023-02-26T07:44:01.664Z,1.00
2023-02-26T07:46:30.894Z,1.10
2023-02-26T07:49:00.729Z,1.05
2023-02-26T07:51:32.398Z,1.20
2023-02-26T07:54:00.862Z,1.00
2023-02-26T07:56:30.729Z,1.52
2023-02-26T07:59:00.516Z,1.10
2023-02-26T08:01:29.830Z,1.22
2023-02-26T08:03:59.103Z,0.98
2023-02-26T08:06:29.317Z,1.00
2023-02-26T08:08:58.578Z,1.35
2023-02-26T08:11:28.307Z,0.90
2023-02-26T08:13:57.713Z,1.07
2023-02-26T08:16:27.585Z,0.90
2023-02-26T08:18:57.010Z,1.02
2023-02-26T08:21:26.684Z,1.05
2023-02-26T08:23:56.046Z,1.00
2023-02-26T08:26:25.981Z,0.90
2023-02-26T08:28:55.753Z,1.17
2023-02-26T08:31:25.813Z,1.00
2023-02-26T08:33:55.855Z,0.90
2023-02-26T08:36:26.495Z,1.00
2023-02-26T08:38:56.058Z,1.10
2023-02-26T08:41:27.701Z,1.50
2023-02-26T08:43:57.585Z,0.98
2023-02-26T08:46:28.030Z,1.00
2023-02-26T08:48:57.646Z,0.90
2023-02-26T08:51:27.441Z,1.00
2023-02-26T08:53:56.906Z,1.02
2023-02-26T08:56:26.862Z,1.12
2023-02-26T08:58:56.650Z,1.30
2023-02-26T09:01:26.197Z,0.90
2023-02-26T09:03:55.807Z,1.10
2023-02-26T09:06:25.418Z,1.10
2023-02-26T09:08:55.386Z,0.80
2023-02-26T09:11:25.424Z,1.20
2023-02-26T09:13:54.833Z,1.45
2023-02-26T09:16:24.559Z,0.78
2023-02-26T09:18:54.166Z,1.00
2023-02-26T09:21:24.106Z,1.00
2023-02-26T09:23:53.335Z,0.90
2023-02-26T09:26:23.183Z,1.00
2023-02-26T09:28:52.701Z,1.22
2023-02-26T09:31:22.312Z,1.30
2023-02-26T09:33:51.642Z,1.00
2023-02-26T09:36:21.427Z,1.15
2023-02-26T09:38:50.638Z,0.70
2023-02-26T09:41:32.367Z,1.20
2023-02-26T09:44:25.606Z,1.07
2023-02-26T09:47:19.280Z,1.00
2023-02-26T09:50:15.967Z,0.98
2023-02-26T09:52:51.627Z,1.00
2023-02-26T09:55:26.668Z,0.80
2023-02-26T09:57:59.216Z,0.78
2023-02-26T10:03:19.986Z,0.70
2023-02-26T10:05:58.127Z,0.90
2023-02-26T10:08:30.631Z,0.98
2023-02-26T10:11:15.285Z,1.00
2023-02-26T10:13:57.275Z,0.88
2023-02-26T10:16:23.710Z,0.90
2023-02-26T10:19:00.516Z,0.90
2023-02-26T10:21:41.741Z,0.85
2023-02-26T10:24:14.234Z,0.90
2023-02-26T10:26:46.594Z,0.95
2023-02-26T10:29:31.069Z,0.70
2023-02-26T10:32:16.147Z,0.80
2023-02-26T10:34:53.654Z,0.85
2023-02-26T10:37:44.415Z,1.07
2023-02-26T10:40:29.178Z,0.70
2023-02-26T10:43:07.471Z,0.75
2023-02-26T10:45:39.942Z,0.80
2023-02-26T10:48:15.425Z,1.02
2023-02-26T10:50:56.963Z,1.00
2023-02-26T10:53:28.461Z,0.90
2023-02-26T10:56:00.860Z,0.70
2023-02-26T10:58:30.075Z,0.95
2023-02-26T11:00:59.361Z,0.95
2023-02-26T11:03:34.821Z,1.50
2023-02-26T11:06:06.596Z,1.50
2023-02-26T11:08:39.044Z,1.00
2023-02-26T11:11:09.021Z,0.88
2023-02-26T11:13:40.700Z,0.70
2023-02-26T11:16:18.656Z,0.90
2023-02-26T11:18:54.021Z,0.75
2023-02-26T11:21:26.775Z,0.60
2023-02-26T11:23:59.771Z,0.70
2023-02-26T11:26:32.422Z,0.70
2023-02-26T11:29:01.777Z,0.80
2023-02-26T11:31:32.066Z,0.70
2023-02-26T11:34:04.774Z,0.80
2023-02-26T11:36:35.502Z,0.70
2023-02-26T11:39:08.010Z,0.70
2023-02-26T11:44:09.635Z,0.60
2023-02-26T11:46:42.047Z,0.63
2023-02-26T11:49:14.076Z,0.78
2023-02-26T11:51:46.443Z,0.62
2023-02-26T11:54:24.340Z,0.90
2023-02-26T11:56:53.779Z,0.93
2023-02-26T11:59:24.921Z,0.70
2023-02-26T12:01:55.193Z,0.80
2023-02-26T12:04:27.892Z,1.00
2023-02-26T12:06:58.088Z,0.90
2023-02-26T12:09:28.180Z,0.80
2023-02-26T12:12:15.847Z,0.80
2023-02-26T12:14:53.913Z,0.57
2023-02-26T12:17:35.221Z,0.98
2023-02-26T12:20:15.299Z,0.72
2023-02-26T12:23:04.427Z,0.72
2023-02-26T12:26:10.195Z,0.85
2023-02-26T12:28:59.202Z,0.62
2023-02-26T12:31:47.268Z,0.90
2023-02-26T12:34:34.926Z,0.90
2023-02-26T12:37:29.284Z,0.82
2023-02-26T12:40:07.650Z,0.90
2023-02-26T12:43:10.480Z,0.82
2023-02-26T12:46:02.226Z,0.90
2023-02-26T12:48:46.508Z,0.70
2023-02-26T12:51:28.181Z,0.80
2023-02-26T12:54:28.029Z,0.70
2023-02-26T12:57:23.322Z,0.70
2023-02-26T13:00:15.113Z,0.88
2023-02-26T13:03:12.137Z,1.02
2023-02-26T13:06:02.669Z,0.93
2023-02-26T13:08:35.752Z,0.80
2023-02-26T13:11:08.184Z,0.68
2023-02-26T13:13:46.759Z,0.70
2023-02-26T13:16:34.601Z,0.70
2023-02-26T13:19:19.264Z,0.82
2023-02-26T13:21:54.313Z,0.90
2023-02-26T13:24:30.098Z,0.70
2023-02-26T13:27:00.371Z,0.85
2023-02-26T13:29:36.376Z,0.70
2023-02-26T13:32:13.245Z,0.80
2023-02-26T13:34:46.519Z,0.70
2023-02-26T13:37:30.466Z,0.60
2023-02-26T13:40:22.558Z,0.80
2023-02-26T13:43:14.505Z,0.80
2023-02-26T13:45:53.023Z,0.67
2023-02-26T13:48:25.473Z,0.80
2023-02-26T13:51:13.984Z,0.90
2023-02-26T13:53:49.848Z,1.00
2023-02-26T13:56:34.511Z,0.75
2023-02-26T13:59:20.550Z,0.70
2023-02-26T14:01:53.769Z,0.80
2023-02-26T14:04:26.483Z,0.80
2023-02-26T14:07:13.848Z,0.82
2023-02-26T14:10:02.015Z,0.93
2023-02-26T14:12:36.386Z,0.75
2023-02-26T14:15:20.564Z,0.90
2023-02-26T14:17:52.281Z,0.90
2023-02-26T14:20:27.650Z,0.87
2023-02-26T14:23:12.603Z,0.80
2023-02-26T14:25:45.038Z,0.80
2023-02-26T14:28:30.205Z,0.70
2023-02-26T14:31:22.377Z,0.70
2023-02-26T14:34:00.755Z,0.62
2023-02-26T14:36:49.727Z,0.98
2023-02-26T14:39:33.378Z,0.90
2023-02-26T14:42:05.999Z,0.90
2023-02-26T14:47:07.994Z,0.80
2023-02-26T14:49:40.432Z,0.90
2023-02-26T14:52:30.817Z,0.80
2023-02-26T14:55:07.596Z,0.80
2023-02-26T14:58:05.693Z,0.70
2023-02-26T15:00:49.791Z,0.60
2023-02-26T15:03:25.158Z,0.80
2023-02-26T15:06:03.446Z,0.80
2023-02-26T15:08:35.904Z,0.50
2023-02-26T15:11:24.977Z,0.60
2023-02-26T15:14:00.528Z,0.70
2023-02-26T15:16:44.831Z,0.80
2023-02-26T15:19:36.888Z,0.80
2023-02-26T15:22:23.785Z,0.60
2023-02-26T15:24:53.624Z,0.70
2023-02-26T15:27:23.056Z,1.00
2023-02-26T15:29:53.161Z,0.85
2023-02-26T15:32:28.901Z,0.80
2023-02-26T15:35:01.490Z,0.60
2023-02-26T15:40:04.991Z,0.50
2023-02-26T15:42:38.334Z,0.80
2023-02-26T15:45:16.951Z,0.60
2023-02-26T15:47:47.965Z,0.75
2023-02-26T15:50:18.459Z,0.57
2023-02-26T15:52:50.055Z,0.70
2023-02-26T15:55:19.498Z,0.60
2023-02-26T15:57:49.336Z,0.60
2023-02-26T16:00:27.657Z,0.60
2023-02-26T16:02:58.944Z,0.62
2023-02-26T16:05:29.351Z,0.62
2023-02-26T16:07:58.920Z,0.65
2023-02-26T16:10:31.311Z,0.72
2023-02-26T16:13:01.869Z,0.53
2023-02-26T16:15:39.109Z,0.80
2023-02-26T16:18:12.046Z,0.70
2023-02-26T16:20:44.305Z,0.70
2023-02-26T16:23:16.890Z,0.53
2023-02-26T16:25:57.952Z,0.70
2023-02-26T16:28:37.828Z,0.90
2023-02-26T16:31:12.647Z,0.85
2023-02-26T16:33:43.193Z,0.90
2023-02-26T16:36:16.381Z,0.70
2023-02-26T16:38:49.681Z,0.50
2023-02-26T16:41:22.231Z,0.70
2023-02-26T16:46:33.732Z,0.75
2023-02-26T16:49:08.005Z,0.78
2023-02-26T16:51:39.876Z,0.80
2023-02-26T16:54:27.267Z,0.60
2023-02-26T16:57:09.085Z,0.75
2023-02-26T16:59:39.630Z,0.83
2023-02-26T17:02:22.434Z,0.98
2023-02-26T17:05:03.880Z,0.95
2023-02-26T17:07:36.203Z,0.70
2023-02-26T17:10:11.541Z,0.90
2023-02-26T17:12:50.226Z,1.17
2023-02-26T17:15:35.829Z,0.80
2023-02-26T17:18:05.543Z,0.75
2023-02-26T17:20:34.957Z,0.70
2023-02-26T17:23:06.156Z,0.80
2023-02-26T17:25:38.590Z,0.82
2023-02-26T17:30:38.339Z,1.00
2023-02-26T17:33:10.907Z,0.90
2023-02-26T17:38:13.344Z,1.07
2023-02-26T17:40:45.334Z,1.00
2023-02-26T17:43:15.007Z,0.95
2023-02-26T17:45:44.330Z,1.00
2023-02-26T17:48:16.304Z,1.07
2023-02-26T17:50:51.398Z,0.78
2023-02-26T17:53:22.437Z,0.80
2023-02-26T17:55:53.523Z,1.15
2023-02-26T17:58:32.145Z,1.00
2023-02-26T18:01:03.994Z,1.07
2023-02-26T18:03:33.643Z,1.25
2023-02-26T18:06:03.372Z,1.15
2023-02-26T18:08:34.734Z,1.20
2023-02-26T18:11:05.016Z,1.10
2023-02-26T18:13:34.478Z,1.02
2023-02-26T18:16:04.477Z,1.10
2023-02-26T18:18:34.007Z,1.20
2023-02-26T18:21:04.871Z,1.05
2023-02-26T18:23:34.199Z,1.20
2023-02-26T18:26:03.678Z,1.40
2023-02-26T18:28:33.436Z,1.00
2023-02-26T18:31:04.467Z,1.10
2023-02-26T18:33:33.798Z,1.35
2023-02-26T18:36:03.413Z,1.20
2023-02-26T18:38:32.716Z,1.30
2023-02-26T18:41:02.269Z,1.30
2023-02-26T18:43:31.607Z,1.20
2023-02-26T18:46:02.213Z,1.10
2023-02-26T18:48:32.113Z,1.42
2023-02-26T18:51:01.675Z,1.30
2023-02-26T18:53:30.910Z,1.47
2023-02-26T18:56:00.173Z,1.12
2023-02-26T18:58:29.531Z,1.30
2023-02-26T19:00:59.309Z,1.32
2023-02-26T19:03:29.011Z,1.37
2023-02-26T19:06:04.364Z,1.60
2023-02-26T19:08:34.025Z,1.57
2023-02-26T19:11:03.434Z,1.52
2023-02-26T19:13:34.615Z,1.80
2023-02-26T19:16:04.189Z,1.57
2023-02-26T19:18:33.840Z,1.70
2023-02-26T19:21:04.770Z,1.87
2023-02-26T19:23:34.093Z,1.65
2023-02-26T19:26:04.105Z,1.90
2023-02-26T19:28:33.893Z,1.40
2023-02-26T19:31:03.617Z,1.60
2023-02-26T19:33:33.119Z,1.95
2023-02-26T19:36:04.033Z,1.72
2023-02-26T19:38:33.586Z,1.70
2023-02-26T19:41:02.938Z,1.40
2023-02-26T19:43:32.461Z,1.77
2023-02-26T19:46:01.862Z,1.82
2023-02-26T19:48:31.977Z,1.65
2023-02-26T19:51:03.066Z,2.00
2023-02-26T19:53:32.358Z,1.80
2023-02-26T19:56:02.431Z,1.90
2023-02-26T19:58:32.350Z,1.87
2023-02-26T20:01:03.628Z,1.70
2023-02-26T20:03:33.249Z,1.87
2023-02-26T20:06:03.432Z,1.90
2023-02-26T20:08:32.828Z,2.12
2023-02-26T20:11:02.818Z,1.82
2023-02-26T20:13:34.077Z,2.08
2023-02-26T20:16:05.938Z,1.70
2023-02-26T20:18:36.013Z,2.22
2023-02-26T20:21:08.384Z,2.00
2023-02-26T20:26:14.839Z,2.22
2023-02-26T20:28:44.294Z,2.08
2023-02-26T20:31:14.014Z,2.00
2023-02-26T20:33:43.530Z,2.37
2023-02-26T20:36:12.955Z,2.12
2023-02-26T20:38:43.031Z,2.40
2023-02-26T20:41:12.340Z,2.22
2023-02-26T20:43:41.809Z,2.10
2023-02-26T20:46:11.384Z,2.10
2023-02-26T20:48:42.641Z,2.35
2023-02-26T20:51:12.282Z,2.33
2023-02-26T20:53:42.637Z,2.12
2023-02-26T20:56:11.933Z,2.50
2023-02-26T20:58:41.318Z,2.08
2023-02-26T21:01:10.969Z,2.40
2023-02-26T21:03:40.673Z,2.50
2023-02-26T21:06:11.005Z,2.37
2023-02-26T21:08:40.692Z,2.40
2023-02-26T21:11:10.377Z,2.60
2023-02-26T21:13:39.913Z,2.50
2023-02-26T21:16:09.326Z,2.50
2023-02-26T21:18:38.870Z,2.25
2023-02-26T21:21:08.448Z,2.30
2023-02-26T21:23:38.037Z,2.52
2023-02-26T21:26:07.557Z,2.70
2023-02-26T21:28:36.833Z,2.90
2023-02-26T21:31:06.286Z,2.58
2023-02-26T21:33:35.498Z,2.95
2023-02-26T21:36:06.386Z,3.10
2023-02-26T21:38:36.097Z,2.95
2023-02-26T21:41:06.861Z,2.95
2023-02-26T21:43:36.178Z,2.80
2023-02-26T21:46:05.877Z,2.80
2023-02-26T21:48:35.715Z,3.00
2023-02-26T21:51:05.483Z,2.85
2023-02-26T21:53:34.764Z,3.00
2023-02-26T21:56:04.141Z,2.75
2023-02-26T21:58:37.975Z,2.80
2023-02-26T22:01:10.682Z,3.40
2023-02-26T22:03:40.449Z,2.90
2023-02-26T22:06:15.571Z,2.92
2023-02-26T22:08:47.116Z,2.90
2023-02-26T22:11:18.671Z,2.70
2023-02-26T22:13:52.604Z,3.00
2023-02-26T22:16:41.260Z,2.77
2023-02-26T22:19:11.996Z,3.00
2023-02-26T22:21:41.600Z,2.85
2023-02-26T22:24:11.315Z,2.77
2023-02-26T22:26:40.713Z,3.05
2023-02-26T22:29:15.082Z,3.35
2023-02-26T22:31:44.672Z,2.60
2023-02-26T22:34:16.154Z,2.10
2023-02-26T22:36:47.659Z,2.98
2023-02-26T22:39:17.246Z,2.60
2023-02-26T22:41:48.673Z,2.90
2023-02-26T22:44:18.412Z,2.17
2023-02-26T22:46:49.516Z,2.75
2023-02-26T22:49:19.759Z,2.60
2023-02-26T22:51:49.947Z,3.20
2023-02-26T22:54:19.174Z,3.10
2023-02-26T22:56:48.630Z,2.70
2023-02-26T22:59:18.257Z,2.87
2023-02-26T23:01:47.824Z,2.90
2023-02-26T23:04:17.315Z,2.90
2023-02-26T23:06:46.703Z,2.85
2023-02-26T23:09:16.003Z,3.45
2023-02-26T23:11:45.323Z,2.92
2023-02-26T23:14:14.618Z,3.15
2023-02-26T23:16:44.865Z,2.70
2023-02-26T23:19:14.163Z,2.90
2023-02-26T23:21:43.408Z,2.83
2023-02-26T23:24:12.754Z,2.70
2023-02-26T23:26:42.004Z,2.40
2023-02-26T23:29:11.566Z,2.45
2023-02-26T23:31:41.837Z,2.30
2023-02-26T23:34:11.190Z,2.25
2023-02-26T23:36:40.800Z,2.70
2023-02-26T23:39:10.180Z,2.30
2023-02-26T23:41:39.632Z,2.55
2023-02-26T23:44:09.005Z,2.20
2023-02-26T23:46:38.735Z,2.58
2023-02-26T23:49:09.517Z,2.30
2023-02-26T23:51:39.297Z,2.22
2023-02-26T23:54:08.507Z,2.47
2023-02-26T23:56:38.065Z,2.40
2023-02-26T23:59:07.681Z,2.92
